PWSweather.com
Personal Weather Stations
Station Observations
KPASPRIN10
East Vincent, East Vincent, PA 19475

East VincentEast Vincent, PA 19475

Lat: 40.170948, Lon: -75.629681

Elevation: 404

Station Type: Davis VP2

http://www.evweather.com

High Low Average
Temperature 40.2°F4.6°C 32.3°F0.2°C 35.9°F2.2°C
Dew Point 29.4°F-1.4°C 24.9°F-3.9°C 26.4°F-3.1°C
Winds 12.7 mph 20.4 kmh 2.3 mph 3.7 kmh 7.0 mph WNW11.3 kmh WNW
Wind Gusts 18.4 mph29.6 kmh 3.5 mph5.6 kmh 10.0 mph16.1 kmh
Humidity 76% 62% 68%
Pressure 29.68 in1005.1 mb 29.61 in1002.7 mb -
Precipitation 0.00 in0.0 mm - -
Hour Temp Dew Point Humidity Winds Wind Gusts Pressure Precip Precip Rate Daily Precip Total
06:40 PM 40.2°F4.6°C 29.4°F-1.4°C 65% 4.6 mph WNW7.4 kmh WNW 8.1 mph13.0 kmh 29.61 in1002.7 mb - 0.00 in0.0 mm 0.00 in0.0 mm
06:50 PM 39.9°F4.4°C 29.0°F-1.7°C 65% 8.1 mph NW13.0 kmh NW 11.5 mph18.5 kmh 29.61 in1002.7 mb - 0.00 in0.0 mm 0.00 in0.0 mm
07:00 PM 39.6°F4.2°C 28.0°F-2.2°C 63% 10.4 mph WNW16.7 kmh WNW 18.4 mph29.6 kmh 29.61 in1002.7 mb - 0.00 in0.0 mm 0.00 in0.0 mm
07:10 PM 39.2°F4.0°C 27.2°F-2.7°C 62% 10.4 mph W16.7 kmh W 16.1 mph25.9 kmh 29.61 in1002.7 mb - 0.00 in0.0 mm 0.00 in0.0 mm
07:20 PM 38.7°F3.7°C 27.6°F-2.4°C 64% 6.9 mph W11.1 kmh W 11.5 mph18.5 kmh 29.62 in1003.0 mb - 0.00 in0.0 mm 0.00 in0.0 mm
07:30 PM 38.4°F3.6°C 27.3°F-2.6°C 64% 8.1 mph W13.0 kmh W 10.4 mph16.7 kmh 29.62 in1003.0 mb - 0.00 in0.0 mm 0.00 in0.0 mm
07:40 PM 38.0°F3.3°C 26.9°F-2.8°C 64% 11.5 mph W18.5 kmh W 17.3 mph27.8 kmh 29.63 in1003.4 mb - 0.00 in0.0 mm 0.00 in0.0 mm
07:50 PM 37.8°F3.2°C 27.1°F-2.7°C 65% 6.9 mph W11.1 kmh W 9.2 mph14.8 kmh 29.63 in1003.4 mb - 0.00 in0.0 mm 0.00 in0.0 mm
08:00 PM 37.4°F3.0°C 26.7°F-2.9°C 65% 10.4 mph W16.7 kmh W 12.7 mph20.4 kmh 29.64 in1003.7 mb - 0.00 in0.0 mm 0.00 in0.0 mm
08:10 PM 37.6°F3.1°C 26.9°F-2.8°C 65% 9.2 mph W14.8 kmh W 13.8 mph22.2 kmh 29.64 in1003.7 mb - 0.00 in0.0 mm 0.00 in0.0 mm
08:20 PM 37.3°F2.9°C 27.0°F-2.8°C 66% 6.9 mph W11.1 kmh W 11.5 mph18.5 kmh 29.64 in1003.7 mb - 0.00 in0.0 mm 0.00 in0.0 mm
08:30 PM 37.2°F2.9°C 26.8°F-2.9°C 66% 10.4 mph WNW16.7 kmh WNW 15.0 mph24.1 kmh 29.65 in1004.1 mb - 0.00 in0.0 mm 0.00 in0.0 mm
08:40 PM 37.2°F2.9°C 26.9°F-2.8°C 66% 10.4 mph W16.7 kmh W 16.1 mph25.9 kmh 29.65 in1004.1 mb - 0.00 in0.0 mm 0.00 in0.0 mm
08:50 PM 37.2°F2.9°C 26.9°F-2.8°C 66% 8.1 mph WNW13.0 kmh WNW 13.8 mph22.2 kmh 29.66 in1004.4 mb - 0.00 in0.0 mm 0.00 in0.0 mm
09:00 PM 37.1°F2.8°C 26.4°F-3.1°C 65% 10.4 mph W16.7 kmh W 15.0 mph24.1 kmh 29.66 in1004.4 mb - 0.00 in0.0 mm 0.00 in0.0 mm
09:10 PM 37.0°F2.8°C 26.3°F-3.2°C 65% 12.7 mph WNW20.4 kmh WNW 17.3 mph27.8 kmh 29.66 in1004.4 mb - 0.00 in0.0 mm 0.00 in0.0 mm
09:20 PM 36.8°F2.7°C 26.2°F-3.2°C 65% 9.2 mph NW14.8 kmh NW 11.5 mph18.5 kmh 29.66 in1004.4 mb - 0.00 in0.0 mm 0.00 in0.0 mm
09:30 PM 36.9°F2.7°C 25.9°F-3.4°C 64% 9.2 mph WNW14.8 kmh WNW 16.1 mph25.9 kmh 29.67 in1004.7 mb - 0.00 in0.0 mm 0.00 in0.0 mm
09:40 PM 36.8°F2.7°C 26.1°F-3.3°C 65% 9.2 mph WNW14.8 kmh WNW 11.5 mph18.5 kmh 29.67 in1004.7 mb - 0.00 in0.0 mm 0.00 in0.0 mm
09:50 PM 36.5°F2.5°C 26.2°F-3.2°C 66% 8.1 mph WNW13.0 kmh WNW 11.5 mph18.5 kmh 29.67 in1004.7 mb - 0.00 in0.0 mm 0.00 in0.0 mm
10:00 PM 36.2°F2.3°C 26.3°F-3.2°C 67% 8.1 mph W13.0 kmh W 15.0 mph24.1 kmh 29.68 in1005.1 mb - 0.00 in0.0 mm 0.00 in0.0 mm
10:10 PM 36.0°F2.2°C 26.1°F-3.3°C 67% 4.6 mph NW7.4 kmh NW 5.8 mph9.3 kmh 29.68 in1005.1 mb - 0.00 in0.0 mm 0.00 in0.0 mm
10:20 PM 35.7°F2.1°C 26.2°F-3.2°C 68% 6.9 mph WNW11.1 kmh WNW 8.1 mph13.0 kmh 29.68 in1005.1 mb - 0.00 in0.0 mm 0.00 in0.0 mm
10:30 PM 35.6°F2.0°C 26.0°F-3.3°C 68% 6.9 mph NW11.1 kmh NW 11.5 mph18.5 kmh 29.67 in1004.7 mb - 0.00 in0.0 mm 0.00 in0.0 mm
10:40 PM 35.3°F1.8°C 26.1°F-3.3°C 69% 4.6 mph WNW7.4 kmh WNW 3.5 mph5.6 kmh 29.67 in1004.7 mb - 0.00 in0.0 mm 0.00 in0.0 mm
10:50 PM 35.1°F1.7°C 25.9°F-3.4°C 69% 2.3 mph WNW3.7 kmh WNW 3.5 mph5.6 kmh 29.67 in1004.7 mb - 0.00 in0.0 mm 0.00 in0.0 mm
11:00 PM 34.7°F1.5°C 25.9°F-3.4°C 70% 2.3 mph W3.7 kmh W 3.5 mph5.6 kmh 29.67 in1004.7 mb - 0.00 in0.0 mm 0.00 in0.0 mm
11:10 PM 34.1°F1.2°C 25.7°F-3.5°C 71% 2.3 mph WNW3.7 kmh WNW 3.5 mph5.6 kmh 29.67 in1004.7 mb - 0.00 in0.0 mm 0.00 in0.0 mm
11:20 PM 33.4°F0.8°C 25.7°F-3.5°C 73% 3.5 mph NW5.6 kmh NW 3.5 mph5.6 kmh 29.66 in1004.4 mb - 0.00 in0.0 mm 0.00 in0.0 mm
11:30 PM 32.8°F0.4°C 25.7°F-3.5°C 75% 3.5 mph WNW5.6 kmh WNW 3.5 mph5.6 kmh 29.67 in1004.7 mb - 0.00 in0.0 mm 0.00 in0.0 mm
11:40 PM 32.4°F0.2°C 25.7°F-3.5°C 76% 4.6 mph W7.4 kmh W 5.8 mph9.3 kmh 29.67 in1004.7 mb - 0.00 in0.0 mm 0.00 in0.0 mm
11:50 PM 32.4°F0.2°C 25.7°F-3.5°C 76% 3.5 mph W5.6 kmh W 3.5 mph5.6 kmh 29.67 in1004.7 mb - 0.00 in0.0 mm 0.00 in0.0 mm